地図

経路データ

SID SEASON NUMBER BASIN SUBBASIN NAME ISO_TIME NATURE LAT LON WMO_WIND WMO_PRES WMO_AGENCY TRACK_TYPE DIST2LAND LANDFALL IFLAG USA_AGENCY USA_ATCF_ID USA_LAT USA_LON USA_RECORD USA_STATUS USA_WIND USA_PRES USA_SSHS USA_R34_NE USA_R34_SE USA_R34_SW USA_R34_NW USA_R50_NE USA_R50_SE USA_R50_SW USA_R50_NW USA_R64_NE USA_R64_SE USA_R64_SW USA_R64_NW USA_POCI USA_ROCI USA_RMW USA_EYE TOKYO_LAT TOKYO_LON TOKYO_GRADE TOKYO_WIND TOKYO_PRES TOKYO_R50_DIR TOKYO_R50_LONG TOKYO_R50_SHORT TOKYO_R30_DIR TOKYO_R30_LONG TOKYO_R30_SHORT TOKYO_LAND CMA_LAT CMA_LON CMA_CAT CMA_WIND CMA_PRES HKO_LAT HKO_LON HKO_CAT HKO_WIND HKO_PRES NEWDELHI_LAT NEWDELHI_LON NEWDELHI_GRADE NEWDELHI_WIND NEWDELHI_PRES NEWDELHI_CI NEWDELHI_DP NEWDELHI_POCI REUNION_LAT REUNION_LON REUNION_TYPE REUNION_WIND REUNION_PRES REUNION_TNUM REUNION_CI REUNION_RMW REUNION_R34_NE REUNION_R34_SE REUNION_R34_SW REUNION_R34_NW REUNION_R50_NE REUNION_R50_SE REUNION_R50_SW REUNION_R50_NW REUNION_R64_NE REUNION_R64_SE REUNION_R64_SW REUNION_R64_NW BOM_LAT BOM_LON BOM_TYPE BOM_WIND BOM_PRES BOM_TNUM BOM_CI BOM_RMW BOM_R34_NE BOM_R34_SE BOM_R34_SW BOM_R34_NW BOM_R50_NE BOM_R50_SE BOM_R50_SW BOM_R50_NW BOM_R64_NE BOM_R64_SE BOM_R64_SW BOM_R64_NW BOM_ROCI BOM_POCI BOM_EYE BOM_POS_METHOD BOM_PRES_METHOD NADI_LAT NADI_LON NADI_CAT NADI_WIND NADI_PRES WELLINGTON_LAT WELLINGTON_LON WELLINGTON_WIND WELLINGTON_PRES DS824_LAT DS824_LON DS824_STAGE DS824_WIND DS824_PRES TD9636_LAT TD9636_LON TD9636_STAGE TD9636_WIND TD9636_PRES TD9635_LAT TD9635_LON TD9635_WIND TD9635_PRES TD9635_ROCI NEUMANN_LAT NEUMANN_LON NEUMANN_CLASS NEUMANN_WIND NEUMANN_PRES MLC_LAT MLC_LON MLC_CLASS MLC_WIND MLC_PRES USA_GUST BOM_GUST BOM_GUST_PER REUNION_GUST REUNION_GUST_PER USA_SEAHGT USA_SEARAD_NE USA_SEARAD_SE USA_SEARAD_SW USA_SEARAD_NW STORM_SPEED STORM_DIR
2015209N15236 2015 52 EP MM NOT_NAMED 2015-07-27 12:00:00 DS 15.1000 -123.900 30 1007 hurdat_epa main 1632 1632 O_____________ hurdat_epa EP082015 15.1000 -123.900 LO 30 1007 -3 1011 150 60 40 13 283
2015209N15236 2015 52 EP MM NOT_NAMED 2015-07-27 15:00:00 DS 15.2505 -124.570 main 1673 1673 P_____________ EP082015 15.2505 -124.570 LO 30 1006 -3 1011 150 47 13 283
2015209N15236 2015 52 EP MM NOT_NAMED 2015-07-27 18:00:00 TS 15.4000 -125.200 30 1006 hurdat_epa main 1714 1714 O_____________ hurdat_epa EP082015 15.4000 -125.200 TD 30 1006 -1 1011 150 35 40 12 285
2015209N15236 2015 52 EP MM NOT_NAMED 2015-07-27 21:00:00 TS 15.5497 -125.765 main 1757 1750 P_____________ EP082015 15.5497 -125.765 TD 30 1006 -1 1011 150 35 11 286
2015209N15236 2015 52 EP MM NOT_NAMED 2015-07-28 00:00:00 TS 15.7000 -126.300 30 1006 hurdat_epa main 1775 1775 O_____________ hurdat_epa EP082015 15.7000 -126.300 TD 30 1006 -1 1011 150 35 40 11 286
2015209N15236 2015 52 EP MM NOT_NAMED 2015-07-28 03:00:00 TS 15.8499 -126.850 main 1808 1800 P_____________ EP082015 15.8499 -126.850 TD 30 1006 -1 1011 150 35 11 286
2015209N15236 2015 52 EP MM NOT_NAMED 2015-07-28 06:00:00 TS 16.0000 -127.400 30 1006 hurdat_epa main 1827 1827 O_____________ hurdat_epa EP082015 16.0000 -127.400 TD 30 1006 -1 1011 150 35 40 11 286
2015209N15236 2015 52 EP MM NOT_NAMED 2015-07-28 09:00:00 TS 16.1574 -127.950 main 1854 1854 P_____________ EP082015 16.1574 -127.950 TD 30 1006 -1 1010 135 37 11 286
2015209N15236 2015 52 EP MM NOT_NAMED 2015-07-28 12:00:00 TS 16.3000 -128.500 30 1006 hurdat_epa main 1883 1883 O_____________ hurdat_epa EP082015 16.3000 -128.500 TD 30 1006 -1 1009 120 40 40 11 283
2015209N15236 2015 52 EP MM NOT_NAMED 2015-07-28 15:00:00 TS 16.4074 -129.050 main 1922 1922 P_____________ EP082015 16.4074 -129.050 TD 30 1006 -1 1009 120 40 11 281
2015209N15236 2015 52 EP MM NOT_NAMED 2015-07-28 18:00:00 TS 16.5000 -129.600 30 1006 hurdat_epa main 1953 1953 O_____________ hurdat_epa EP082015 16.5000 -129.600 TD 30 1006 -1 1009 120 40 40 11 281
2015209N15236 2015 52 EP MM NOT_NAMED 2015-07-28 21:00:00 TS 16.6073 -130.143 main 1985 1985 P_____________ EP082015 16.6073 -130.143 TD 30 1006 -1 1009 120 40 11 281
2015209N15236 2015 52 EP MM NOT_NAMED 2015-07-29 00:00:00 TS 16.7000 -130.700 30 1006 hurdat_epa main 2026 2026 O_____________ hurdat_epa EP082015 16.7000 -130.700 TD 30 1006 -1 1009 120 40 40 11 278
2015209N15236 2015 52 EP MM NOT_NAMED 2015-07-29 03:00:00 TS 16.7648 -131.278 main 2069 2069 P_____________ EP082015 16.7648 -131.278 TD 30 1006 -1 1009 120 40 12 275
2015209N15236 2015 52 EP MM NOT_NAMED 2015-07-29 06:00:00 TS 16.8000 -131.900 30 1006 hurdat_epa main 2119 2119 O_____________ hurdat_epa EP082015 16.8000 -131.900 TD 30 1006 -1 1009 120 40 40 12 272
2015209N15236 2015 52 EP MM NOT_NAMED 2015-07-29 09:00:00 TS 16.8148 -132.577 main 2178 2178 P_____________ EP082015 16.8148 -132.577 TD 30 1006 -1 1009 120 40 13 270
2015209N15236 2015 52 EP MM NOT_NAMED 2015-07-29 12:00:00 TS 16.8000 -133.300 30 1006 hurdat_epa main 2238 2217 O_____________ hurdat_epa EP082015 16.8000 -133.300 TD 30 1006 -1 1009 120 40 40 14 268
2015209N15236 2015 52 EP MM NOT_NAMED 2015-07-29 15:00:00 TS 16.7572 -134.035 main 2217 2135 P_____________ EP082015 16.7572 -134.035 TD 30 1006 -1 1009 120 40 14 266
2015209N15236 2015 52 EP MM NOT_NAMED 2015-07-29 18:00:00 TS 16.7000 -134.800 30 1006 hurdat_epa main 2135 2054 O_____________ hurdat_epa EP082015 16.7000 -134.800 TD 30 1006 -1 1009 120 40 40 15 266
2015209N15236 2015 52 EP MM NOT_NAMED 2015-07-29 21:00:00 TS 16.6425 -135.615 main 2054 1971 P_____________ EP082015 16.6425 -135.615 TD 30 1006 -1 1009 120 40 15 266
2015209N15236 2015 52 EP MM NOT_NAMED 2015-07-30 00:00:00 DS 16.6000 -136.400 30 1006 hurdat_epa main 1971 1908 O_____________ hurdat_epa EP082015 16.6000 -136.400 LO 30 1006 -3 1009 120 40 40 14 268
2015209N15236 2015 52 EP MM NOT_NAMED 2015-07-30 03:00:00 DS 16.5921 -137.072 main 1898 1836 P_____________ EP082015 16.5921 -137.072 LO 27 1006 -3 1009 120 40 12 270
2015209N15236 2015 52 EP MM NOT_NAMED 2015-07-30 06:00:00 DS 16.6000 -137.700 25 1007 hurdat_epa main 1836 1773 O_____________ hurdat_epa EP082015 16.6000 -137.700 LO 25 1007 -3 1009 120 40 35 12 270
2015209N15236 2015 52 EP MM NOT_NAMED 2015-07-30 09:00:00 DS 16.5997 -138.343 main 1773 1701 P_____________ EP082015 16.5997 -138.343 LO 25 1007 -3 1009 120 40 12 270
2015209N15236 2015 52 EP MM NOT_NAMED 2015-07-30 12:00:00 DS 16.6000 -139.000 25 1007 hurdat_epa main 1701 1638 O_____________ hurdat_epa EP082015 16.6000 -139.000 LO 25 1007 -3 1010 120 40 35 13 270
2015209N15236 2015 52 EP MM NOT_NAMED 2015-07-30 15:00:00 DS 16.5998 -139.685 main 1628 1556 P_____________ EP082015 16.5998 -139.685 LO 25 1007 -3 1010 120 45 13 270
2015209N15236 2015 52 EP CP NOT_NAMED 2015-07-30 18:00:00 DS 16.6000 -140.400 25 1007 hurdat_epa main 1556 1483 O_____________ hurdat_epa EP082015 16.6000 -140.400 LO 25 1007 -3 1010 120 50 14 270
2015209N15236 2015 52 EP CP NOT_NAMED 2015-07-30 21:00:00 DS 16.6072 -141.135 main 1483 1401 P_____________ EP082015 16.6072 -141.135 LO 25 1007 -3 1010 120 50 14 270
2015209N15236 2015 52 EP CP NOT_NAMED 2015-07-31 00:00:00 DS 16.6000 -141.900 25 1007 hurdat_epa main 1401 1329 O_____________ hurdat_epa EP082015 16.6000 -141.900 LO 25 1007 -3 1010 120 50 15 268
2015209N15236 2015 52 EP CP NOT_NAMED 2015-07-31 03:00:00 DS 16.5606 -142.693 main 1319 1241 P_____________ EP082015 16.5606 -142.693 LO 25 1007 -3 1010 120 50 15 266
2015209N15236 2015 52 EP CP NOT_NAMED 2015-07-31 06:00:00 DS 16.5000 -143.500 25 1007 hurdat_epa main 1241 O_____________ hurdat_epa EP082015 16.5000 -143.500 LO 25 1007 -3 1010 120 50 16 266

IBTrACS Databaseについて

本データベースは、米国NOAAが公開する1842年以降の世界の熱帯低気圧のベストトラックデータアーカイブInternational Best Track Archive for Climate Stewardship (IBTrACS)を、ウェブで閲覧しやすい形式に変換したものです。

最終更新日:2021-10-08